Weather at Newtownards Airport

Public forecast

Using degrees Celsius for public forecast. Weather courtesy of forecast.io.

Closest aviation weather report (METAR) to Newtownards Airport

Closest report is George Best Belfast City Airport, 6.7 nm (12.3 km) WNW.

2024/03/03 08:20 (retrieved 38 minutes ago)

EGAC 030820Z AUTO 21006KT 9999 SCT034 03/02 Q0997

Closest aviation forecast (TAF) to Newtownards Airport

Closest forecast is Belfast International Airport, 18.8 nm (34.8 km) WNW.

2024/03/03 06:00 (retrieved 3 hours ago)

TAF EGAA 030502Z 0306/0406 27005KT 9999 SCT020 TEMPO 0306/0309 6000 -RADZ BKN012 PROB30 TEMPO 0306/0309 BKN006 PROB30 TEMPO 0314/0321 7000 SHRA BKN014